Svitzer Leixoes — CSXW6 — position and weather

sailwx.info

Track history (hours):
 
Tides and Currents Weather Stations Pressure Air Temp Water Temp Dewpoint Dewpoint Depression Visibility Wind Speed Wind Dir Waves Ship Positions

Svitzer Leixoes

Last reported at 2015-Aug-31 04:33 UTC. Time now 2015-Aug-31 04:52 UTC.
Position N 38°42' W 009°10'.

Length 28 m; draft 3.9 m.

Type: Towing. MMSI: 263622000.

Date/timePositionNaut miles runAvg speedWind from/ knotsBaromVisibWave heightAir tempDewpointWater temp
2015-Aug-31 04:33N 38°42' W 009°10'0 0.0
2015-Aug-31 03:32N 38°42' W 009°10'0 0.0
2015-Aug-31 02:33N 38°42' W 009°10'0 0.0
2015-Aug-31 01:32N 38°42' W 009°10'0 0.0
2015-Aug-31 00:33N 38°42' W 009°10'0 0.0
2015-Aug-30 23:33N 38°42' W 009°10'0 0.0
2015-Aug-30 22:29N 38°42' W 009°10'0 0.0
2015-Aug-30 21:30N 38°42' W 009°10'0 0.0
2015-Aug-30 20:33N 38°42' W 009°10'0 0.0
2015-Aug-30 19:33N 38°42' W 009°10'0 0.0
2015-Aug-30 18:33N 38°42' W 009°10'0 0.0
2015-Aug-30 17:33N 38°42' W 009°10'0 0.0
2015-Aug-30 16:33N 38°42' W 009°10'0 0.0
2015-Aug-30 15:32N 38°42' W 009°10'0 0.0
2015-Aug-30 14:33N 38°42' W 009°10'0 0.0
2015-Aug-30 13:32N 38°42' W 009°10'0 0.0
2015-Aug-30 12:33N 38°42' W 009°10'0 0.0
2015-Aug-30 11:33N 38°42' W 009°10'0 0.0
2015-Aug-30 10:24N 38°42' W 009°10'0 0.0
2015-Aug-30 09:32N 38°42' W 009°10'0 0.0
2015-Aug-30 08:26N 38°42' W 009°10'0 0.0
2015-Aug-30 07:31N 38°42' W 009°10'0 0.0
2015-Aug-30 06:04N 38°42' W 009°10'0 0.0
2015-Aug-30 05:32N 38°42' W 009°10'0 0.0
2015-Aug-30 04:28N 38°42' W 009°10'0 0.0
2015-Aug-30 03:22N 38°42' W 009°10'0 0.0
2015-Aug-30 02:33N 38°42' W 009°10'0 0.0
2015-Aug-30 01:31N 38°42' W 009°10'0 0.0
2015-Aug-30 00:32N 38°42' W 009°10'0 0.0
2015-Aug-29 23:33N 38°42' W 009°10'0 0.0
2015-Aug-29 22:30N 38°42' W 009°10'0 0.0
2015-Aug-29 21:33N 38°42' W 009°10'0 0.0
2015-Aug-29 20:26N 38°42' W 009°10'0 0.0
2015-Aug-29 19:20N 38°42' W 009°10'0 0.0
2015-Aug-29 18:31N 38°42' W 009°10'0 0.4
2015-Aug-29 17:33N 38°42' W 009°10'0 0.4
2015-Aug-29 16:33N 38°42' W 009°10'0 0.0
2015-Aug-29 15:27N 38°42' W 009°10'0 0.0
2015-Aug-29 14:20N 38°42' W 009°10'0 0.0
2015-Aug-29 13:24N 38°42' W 009°10'0 0.0
2015-Aug-29 12:16N 38°42' W 009°10'0 0.0
2015-Aug-29 11:32N 38°42' W 009°10'0 0.0
2015-Aug-29 10:32N 38°42' W 009°10'0 0.0
2015-Aug-29 09:33N 38°42' W 009°10'1 1.4
2015-Aug-29 08:33N 38°42' W 009°11'3 2.6
2015-Aug-29 07:33N 38°41' W 009°14'2 1.8
2015-Aug-29 06:32N 38°41' W 009°12'2 1.5
2015-Aug-29 05:30N 38°42' W 009°10'1 0.8
2015-Aug-29 04:33N 38°42' W 009°10'0 0.0
2015-Aug-29 03:30N 38°42' W 009°10'0 0.0
2015-Aug-29 02:33N 38°42' W 009°10'4 3.5
2015-Aug-29 01:32N 38°41' W 009°14'4 3.5
2015-Aug-29 00:32N 38°42' W 009°10'0 0.2
2015-Aug-28 23:33N 38°42' W 009°10'0 0.0
2015-Aug-28 22:25N 38°42' W 009°10'0 0.0
2015-Aug-28 21:30N 38°42' W 009°10'0 0.0
2015-Aug-28 20:32N 38°42' W 009°10'0 0.0
2015-Aug-28 19:30N 38°42' W 009°10'0 0.0
2015-Aug-28 18:32N 38°42' W 009°10'0 0.0
2015-Aug-28 17:33N 38°42' W 009°10'0 0.0
2015-Aug-28 16:31N 38°42' W 009°10'0 0.0
2015-Aug-28 15:33N 38°42' W 009°10'0 0.0
2015-Aug-28 14:33N 38°42' W 009°10'0 0.0
2015-Aug-28 13:30N 38°42' W 009°10'0 0.0
2015-Aug-28 12:33N 38°42' W 009°10'0 0.0
2015-Aug-28 11:33N 38°42' W 009°10'0 0.0
2015-Aug-28 10:33N 38°42' W 009°10'0 0.0
2015-Aug-28 09:27N 38°42' W 009°10'0 0.0
2015-Aug-28 08:33N 38°42' W 009°10'0 0.0
2015-Aug-28 07:33N 38°42' W 009°10'0 0.0
2015-Aug-28 06:33N 38°42' W 009°10'0 0.0
2015-Aug-28 05:26N 38°42' W 009°10'0 0.0
2015-Aug-28 04:26N 38°42' W 009°10'0 0.0
2015-Aug-28 03:32N 38°42' W 009°10'0 0.0
2015-Aug-28 02:33N 38°42' W 009°10'0 0.0
2015-Aug-28 01:33N 38°42' W 009°10'0 0.0
2015-Aug-28 00:33N 38°42' W 009°10'0 0.0
2015-Aug-27 23:33N 38°42' W 009°10'0 0.0
2015-Aug-27 22:32N 38°42' W 009°10'0 0.0
2015-Aug-27 21:33N 38°42' W 009°10'0 0.0
2015-Aug-27 20:33N 38°42' W 009°10'0 0.0
2015-Aug-27 19:33N 38°42' W 009°10'0 0.0
2015-Aug-27 18:33N 38°42' W 009°10'0 0.0
2015-Aug-27 17:33N 38°42' W 009°10'0 0.0
2015-Aug-27 16:33N 38°42' W 009°10'0 0.0
2015-Aug-27 15:33N 38°42' W 009°10'0 0.0
2015-Aug-27 14:31N 38°42' W 009°10'0 0.0
2015-Aug-27 13:32N 38°42' W 009°10'0 0.0
2015-Aug-27 12:32N 38°42' W 009°10'0 0.0
2015-Aug-27 11:30N 38°42' W 009°10'0 0.0
2015-Aug-27 10:29N 38°42' W 009°10'0 0.0
2015-Aug-27 09:33N 38°42' W 009°10'0 0.0
2015-Aug-27 08:33N 38°42' W 009°10'0 0.3
2015-Aug-27 07:33N 38°42' W 009°10'1 1.4
2015-Aug-27 06:33N 38°41' W 009°12'2 1.7
2015-Aug-27 05:33N 38°42' W 009°10'0 0.0
2015-Aug-27 04:33N 38°42' W 009°10'0 0.0
2015-Aug-27 03:32N 38°42' W 009°10'0 0.0
2015-Aug-27 02:32N 38°42' W 009°10'0 0.0
2015-Aug-27 01:27N 38°42' W 009°10'1 1.1
2015-Aug-27 00:33N 38°42' W 009°08'1 0.7
2015-Aug-26 23:33N 38°42' W 009°09'0 0.2
2015-Aug-26 22:33N 38°42' W 009°10'0 0.0
2015-Aug-26 21:32N 38°42' W 009°10'0 0.0
2015-Aug-26 20:28N 38°42' W 009°10'0 0.0
2015-Aug-26 19:32N 38°42' W 009°10'0 0.0
2015-Aug-26 18:33N 38°42' W 009°10'0 0.0
2015-Aug-26 17:33N 38°42' W 009°10'0 0.0
2015-Aug-26 16:33N 38°42' W 009°10'0 0.0
2015-Aug-26 15:33N 38°42' W 009°10'2 1.4
2015-Aug-26 14:28N 38°42' W 009°11'2 2.3
2015-Aug-26 13:33N 38°42' W 009°09'1 0.5
2015-Aug-26 12:32N 38°41' W 009°08'1 1.1
2015-Aug-26 11:26N 38°42' W 009°10'0 0.0
2015-Aug-26 10:32N 38°42' W 009°10'0 0.0
2015-Aug-26 09:30N 38°42' W 009°10'2 2.2
2015-Aug-26 08:33N 38°41' W 009°07'2 1.5
2015-Aug-26 07:33N 38°41' W 009°05'4 3.6
2015-Aug-26 06:33N 38°42' W 009°10'2 2.0
2015-Aug-26 05:33N 38°42' W 009°07'2 2.0
2015-Aug-26 04:33N 38°42' W 009°10'0 0.0
2015-Aug-26 03:30N 38°42' W 009°10'0 0.0
2015-Aug-26 02:33N 38°42' W 009°10'0 0.0
2015-Aug-26 01:05N 38°42' W 009°10'0 0.0
2015-Aug-26 00:33N 38°42' W 009°10'0 0.0
2015-Aug-25 23:32N 38°42' W 009°10'0 0.0
2015-Aug-25 22:33N 38°42' W 009°10'0 0.0
2015-Aug-25 21:30N 38°42' W 009°10'0 0.0
2015-Aug-25 20:31N 38°42' W 009°10'0 0.0
2015-Aug-25 19:33N 38°42' W 009°10'0 0.0
2015-Aug-25 18:32N 38°42' W 009°10'0 0.0
2015-Aug-25 17:33N 38°42' W 009°10'0 0.0
2015-Aug-25 16:33N 38°42' W 009°10'0 0.0
2015-Aug-25 15:32N 38°42' W 009°10'0 0.0
2015-Aug-25 14:27N 38°42' W 009°10'0 0.0
2015-Aug-25 13:32N 38°42' W 009°10'0 0.0
2015-Aug-25 12:33N 38°42' W 009°10'0 0.0
2015-Aug-25 11:28N 38°42' W 009°10'0 0.0
2015-Aug-25 10:33N 38°42' W 009°10'0 0.0
2015-Aug-25 09:33N 38°42' W 009°10'0 0.0
2015-Aug-25 08:31N 38°42' W 009°10'0 0.0
2015-Aug-25 07:33N 38°42' W 009°10'0 0.0
2015-Aug-25 06:31N 38°42' W 009°10'3 2.6
2015-Aug-25 05:26N 38°43' W 009°06'3 3.2
2015-Aug-25 04:33N 38°42' W 009°10'0 0.0
2015-Aug-25 03:33N 38°42' W 009°10'0 0.0
2015-Aug-25 02:33N 38°42' W 009°10'0 0.0
2015-Aug-25 01:29N 38°42' W 009°10'0 0.0
2015-Aug-25 00:33N 38°42' W 009°10'0 0.0
2015-Aug-24 23:33N 38°42' W 009°10'5 4.8
2015-Aug-24 22:33N 38°41' W 009°04'3 3.1
2015-Aug-24 21:33N 38°41' W 009°07'2 2.0
2015-Aug-24 20:33N 38°42' W 009°10'0 0.0
2015-Aug-24 19:33N 38°42' W 009°10'0 0.0
2015-Aug-24 18:32N 38°42' W 009°10'0 0.0
2015-Aug-24 17:33N 38°42' W 009°10'0 0.0
2015-Aug-24 16:33N 38°42' W 009°10'0 0.0
2015-Aug-24 15:32N 38°42' W 009°10'0 0.0
2015-Aug-24 14:22N 38°42' W 009°10'0 0.0
2015-Aug-24 13:33N 38°42' W 009°10'0 0.0
2015-Aug-24 12:29N 38°42' W 009°10'0 0.0
2015-Aug-24 11:16N 38°42' W 009°10'0 0.5
2015-Aug-24 10:29N 38°42' W 009°10'0 0.4
2015-Aug-24 09:30N 38°42' W 009°10'0 0.0
2015-Aug-24 08:33N 38°42' W 009°10'0 0.0
2015-Aug-24 07:33N 38°42' W 009°10'0 0.0
2015-Aug-24 06:33N 38°42' W 009°10'0 0.0
2015-Aug-24 04:30N 38°42' W 009°10'0 0.0
2015-Aug-24 03:34N 38°42' W 009°10'0 0.0
2015-Aug-24 02:33N 38°42' W 009°10'0 0.0
2015-Aug-24 01:33N 38°42' W 009°10'0 0.0
2015-Aug-24 00:33N 38°42' W 009°10'0 0.0
2015-Aug-23 23:30N 38°42' W 009°10'0 0.0
2015-Aug-23 22:33N 38°42' W 009°10'0 0.0
2015-Aug-23 21:34N 38°42' W 009°10'0 0.0
2015-Aug-23 20:30N 38°42' W 009°10'0 0.0
2015-Aug-23 19:24N 38°42' W 009°10'0 0.0
2015-Aug-23 18:30N 38°42' W 009°10'0 0.0
2015-Aug-23 17:34N 38°42' W 009°10'0 0.0
2015-Aug-23 16:34N 38°42' W 009°10'0 0.0
2015-Aug-23 15:32N 38°42' W 009°10'2 1.7
2015-Aug-23 14:33N 38°41' W 009°11'1 1.3
2015-Aug-23 13:33N 38°41' W 009°13'3 2.2
2015-Aug-23 12:22N 38°42' W 009°10'1 1.4
2015-Aug-23 11:33N 38°42' W 009°11'1 1.1
2015-Aug-23 10:31N 38°42' W 009°10'0 0.0
2015-Aug-23 09:33N 38°42' W 009°10'4 3.9
2015-Aug-23 08:34N 38°41' W 009°14'0 0.4
2015-Aug-23 07:34N 38°41' W 009°15'5 5.3
2015-Aug-23 06:33N 38°42' W 009°08'1 1.0
2015-Aug-23 05:34N 38°42' W 009°09'0 0.3
2015-Aug-23 04:22N 38°42' W 009°10'0 0.0
2015-Aug-23 03:33N 38°42' W 009°10'0 0.0
2015-Aug-23 02:33N 38°42' W 009°10'0 0.0
2015-Aug-23 01:27N 38°42' W 009°10'0 0.0
2015-Aug-23 00:32N 38°42' W 009°10'0 0.0
2015-Aug-22 23:13N 38°42' W 009°10'0 0.0
2015-Aug-22 22:33N 38°42' W 009°10'0 0.0
2015-Aug-22 21:32N 38°42' W 009°10'0 0.0
2015-Aug-22 20:34N 38°42' W 009°10'1 1.4
2015-Aug-22 19:33N 38°41' W 009°08'2 1.5
2015-Aug-22 18:30N 38°41' W 009°06'3 3.1
2015-Aug-22 17:34N 38°42' W 009°10'0 0.0
2015-Aug-22 16:33N 38°42' W 009°10'0 0.0
2015-Aug-22 15:29N 38°42' W 009°10'0 0.0
2015-Aug-22 14:33N 38°42' W 009°10'0 0.0
2015-Aug-22 13:33N 38°42' W 009°10'0 0.0
2015-Aug-22 12:33N 38°42' W 009°10'0 0.0
2015-Aug-22 11:33N 38°42' W 009°10'0 0.0
2015-Aug-22 10:32N 38°42' W 009°10'0 0.0
2015-Aug-22 09:29N 38°42' W 009°10'0 0.0
2015-Aug-22 08:32N 38°42' W 009°10'0 0.0
2015-Aug-22 07:31N 38°42' W 009°10'0 0.0
2015-Aug-22 06:32N 38°42' W 009°10'0 0.4
2015-Aug-22 05:34N 38°42' W 009°10'0 0.4
2015-Aug-22 04:31N 38°42' W 009°10'0 0.0
2015-Aug-22 03:32N 38°42' W 009°10'0 0.0
2015-Aug-22 02:33N 38°42' W 009°10'0 0.0
2015-Aug-22 01:31N 38°42' W 009°10'0 0.0
2015-Aug-22 00:32N 38°42' W 009°10'0 0.0
2015-Aug-21 23:33N 38°42' W 009°10'0 0.0
2015-Aug-21 22:32N 38°42' W 009°10'0 0.0
2015-Aug-21 21:34N 38°42' W 009°10'0 0.0
2015-Aug-21 20:30N 38°42' W 009°10'0 0.0
2015-Aug-21 19:32N 38°42' W 009°10'5 4.8
2015-Aug-21 18:33N 38°41' W 009°04'3 3.3
2015-Aug-21 17:34N 38°41' W 009°08'2 1.7
2015-Aug-21 16:33N 38°42' W 009°10'0 0.0
2015-Aug-21 15:28N 38°42' W 009°10'0 0.0
2015-Aug-21 14:27N 38°42' W 009°10'0 0.0
2015-Aug-21 13:33N 38°42' W 009°10'0 0.0
2015-Aug-21 12:33N 38°42' W 009°10'0 0.0
2015-Aug-21 11:33N 38°42' W 009°10'0 0.0
2015-Aug-21 10:33N 38°42' W 009°10'0 0.0
2015-Aug-21 09:30N 38°42' W 009°10'0 0.0
2015-Aug-21 08:33N 38°42' W 009°10'0 0.0
2015-Aug-21 07:33N 38°42' W 009°10'0 0.0
2015-Aug-21 06:33N 38°42' W 009°10'1 1.2
2015-Aug-21 05:33N 38°42' W 009°11'1 1.2
2015-Aug-21 04:33N 38°42' W 009°10'  
Track history (hours):
 
Tides and Currents Weather Stations Pressure Air Temp Water Temp Dewpoint Dewpoint Depression Visibility Wind Speed Wind Dir Waves Ship Positions

Svitzer Leixoes

Last reported at 2015-Aug-31 04:33 UTC. Time now 2015-Aug-31 04:52 UTC.
Position N 38°42' W 009°10'.

Length 28 m; draft 3.9 m.

Type: Towing. MMSI: 263622000.

Date/timePositionNaut miles runAvg speedWind from/ knotsBaromVisibWave heightAir tempDewpointWater temp
2015-Aug-31 04:33N 38°42' W 009°10'0 0.0
2015-Aug-31 03:32N 38°42' W 009°10'0 0.0
2015-Aug-31 02:33N 38°42' W 009°10'0 0.0
2015-Aug-31 01:32N 38°42' W 009°10'0 0.0
2015-Aug-31 00:33N 38°42' W 009°10'0 0.0
2015-Aug-30 23:33N 38°42' W 009°10'0 0.0
2015-Aug-30 22:29N 38°42' W 009°10'0 0.0
2015-Aug-30 21:30N 38°42' W 009°10'0 0.0
2015-Aug-30 20:33N 38°42' W 009°10'0 0.0
2015-Aug-30 19:33N 38°42' W 009°10'0 0.0
2015-Aug-30 18:33N 38°42' W 009°10'0 0.0
2015-Aug-30 17:33N 38°42' W 009°10'0 0.0
2015-Aug-30 16:33N 38°42' W 009°10'0 0.0
2015-Aug-30 15:32N 38°42' W 009°10'0 0.0
2015-Aug-30 14:33N 38°42' W 009°10'0 0.0
2015-Aug-30 13:32N 38°42' W 009°10'0 0.0
2015-Aug-30 12:33N 38°42' W 009°10'0 0.0
2015-Aug-30 11:33N 38°42' W 009°10'0 0.0
2015-Aug-30 10:24N 38°42' W 009°10'0 0.0
2015-Aug-30 09:32N 38°42' W 009°10'0 0.0
2015-Aug-30 08:26N 38°42' W 009°10'0 0.0
2015-Aug-30 07:31N 38°42' W 009°10'0 0.0
2015-Aug-30 06:04N 38°42' W 009°10'0 0.0
2015-Aug-30 05:32N 38°42' W 009°10'0 0.0
2015-Aug-30 04:28N 38°42' W 009°10'0 0.0
2015-Aug-30 03:22N 38°42' W 009°10'0 0.0
2015-Aug-30 02:33N 38°42' W 009°10'0 0.0
2015-Aug-30 01:31N 38°42' W 009°10'0 0.0
2015-Aug-30 00:32N 38°42' W 009°10'0 0.0
2015-Aug-29 23:33N 38°42' W 009°10'0 0.0
2015-Aug-29 22:30N 38°42' W 009°10'0 0.0
2015-Aug-29 21:33N 38°42' W 009°10'0 0.0
2015-Aug-29 20:26N 38°42' W 009°10'0 0.0
2015-Aug-29 19:20N 38°42' W 009°10'0 0.0
2015-Aug-29 18:31N 38°42' W 009°10'0 0.4
2015-Aug-29 17:33N 38°42' W 009°10'0 0.4
2015-Aug-29 16:33N 38°42' W 009°10'0 0.0
2015-Aug-29 15:27N 38°42' W 009°10'0 0.0
2015-Aug-29 14:20N 38°42' W 009°10'0 0.0
2015-Aug-29 13:24N 38°42' W 009°10'0 0.0
2015-Aug-29 12:16N 38°42' W 009°10'0 0.0
2015-Aug-29 11:32N 38°42' W 009°10'0 0.0
2015-Aug-29 10:32N 38°42' W 009°10'0 0.0
2015-Aug-29 09:33N 38°42' W 009°10'1 1.4
2015-Aug-29 08:33N 38°42' W 009°11'3 2.6
2015-Aug-29 07:33N 38°41' W 009°14'2 1.8
2015-Aug-29 06:32N 38°41' W 009°12'2 1.5
2015-Aug-29 05:30N 38°42' W 009°10'1 0.8
2015-Aug-29 04:33N 38°42' W 009°10'0 0.0
2015-Aug-29 03:30N 38°42' W 009°10'0 0.0
2015-Aug-29 02:33N 38°42' W 009°10'4 3.5
2015-Aug-29 01:32N 38°41' W 009°14'4 3.5
2015-Aug-29 00:32N 38°42' W 009°10'0 0.2
2015-Aug-28 23:33N 38°42' W 009°10'0 0.0
2015-Aug-28 22:25N 38°42' W 009°10'0 0.0
2015-Aug-28 21:30N 38°42' W 009°10'0 0.0
2015-Aug-28 20:32N 38°42' W 009°10'0 0.0
2015-Aug-28 19:30N 38°42' W 009°10'0 0.0
2015-Aug-28 18:32N 38°42' W 009°10'0 0.0
2015-Aug-28 17:33N 38°42' W 009°10'0 0.0
2015-Aug-28 16:31N 38°42' W 009°10'0 0.0
2015-Aug-28 15:33N 38°42' W 009°10'0 0.0
2015-Aug-28 14:33N 38°42' W 009°10'0 0.0
2015-Aug-28 13:30N 38°42' W 009°10'0 0.0
2015-Aug-28 12:33N 38°42' W 009°10'0 0.0
2015-Aug-28 11:33N 38°42' W 009°10'0 0.0
2015-Aug-28 10:33N 38°42' W 009°10'0 0.0
2015-Aug-28 09:27N 38°42' W 009°10'0 0.0
2015-Aug-28 08:33N 38°42' W 009°10'0 0.0
2015-Aug-28 07:33N 38°42' W 009°10'0 0.0
2015-Aug-28 06:33N 38°42' W 009°10'0 0.0
2015-Aug-28 05:26N 38°42' W 009°10'0 0.0
2015-Aug-28 04:26N 38°42' W 009°10'0 0.0
2015-Aug-28 03:32N 38°42' W 009°10'0 0.0
2015-Aug-28 02:33N 38°42' W 009°10'0 0.0
2015-Aug-28 01:33N 38°42' W 009°10'0 0.0
2015-Aug-28 00:33N 38°42' W 009°10'0 0.0
2015-Aug-27 23:33N 38°42' W 009°10'0 0.0
2015-Aug-27 22:32N 38°42' W 009°10'0 0.0
2015-Aug-27 21:33N 38°42' W 009°10'0 0.0
2015-Aug-27 20:33N 38°42' W 009°10'0 0.0
2015-Aug-27 19:33N 38°42' W 009°10'0 0.0
2015-Aug-27 18:33N 38°42' W 009°10'0 0.0
2015-Aug-27 17:33N 38°42' W 009°10'0 0.0
2015-Aug-27 16:33N 38°42' W 009°10'0 0.0
2015-Aug-27 15:33N 38°42' W 009°10'0 0.0
2015-Aug-27 14:31N 38°42' W 009°10'0 0.0
2015-Aug-27 13:32N 38°42' W 009°10'0 0.0
2015-Aug-27 12:32N 38°42' W 009°10'0 0.0
2015-Aug-27 11:30N 38°42' W 009°10'0 0.0
2015-Aug-27 10:29N 38°42' W 009°10'0 0.0
2015-Aug-27 09:33N 38°42' W 009°10'0 0.0
2015-Aug-27 08:33N 38°42' W 009°10'0 0.3
2015-Aug-27 07:33N 38°42' W 009°10'1 1.4
2015-Aug-27 06:33N 38°41' W 009°12'2 1.7
2015-Aug-27 05:33N 38°42' W 009°10'0 0.0
2015-Aug-27 04:33N 38°42' W 009°10'0 0.0
2015-Aug-27 03:32N 38°42' W 009°10'0 0.0
2015-Aug-27 02:32N 38°42' W 009°10'0 0.0
2015-Aug-27 01:27N 38°42' W 009°10'1 1.1
2015-Aug-27 00:33N 38°42' W 009°08'1 0.7
2015-Aug-26 23:33N 38°42' W 009°09'0 0.2
2015-Aug-26 22:33N 38°42' W 009°10'0 0.0
2015-Aug-26 21:32N 38°42' W 009°10'0 0.0
2015-Aug-26 20:28N 38°42' W 009°10'0 0.0
2015-Aug-26 19:32N 38°42' W 009°10'0 0.0
2015-Aug-26 18:33N 38°42' W 009°10'0 0.0
2015-Aug-26 17:33N 38°42' W 009°10'0 0.0
2015-Aug-26 16:33N 38°42' W 009°10'0 0.0
2015-Aug-26 15:33N 38°42' W 009°10'2 1.4
2015-Aug-26 14:28N 38°42' W 009°11'2 2.3
2015-Aug-26 13:33N 38°42' W 009°09'1 0.5
2015-Aug-26 12:32N 38°41' W 009°08'1 1.1
2015-Aug-26 11:26N 38°42' W 009°10'0 0.0
2015-Aug-26 10:32N 38°42' W 009°10'0 0.0
2015-Aug-26 09:30N 38°42' W 009°10'2 2.2
2015-Aug-26 08:33N 38°41' W 009°07'2 1.5
2015-Aug-26 07:33N 38°41' W 009°05'4 3.6
2015-Aug-26 06:33N 38°42' W 009°10'2 2.0
2015-Aug-26 05:33N 38°42' W 009°07'2 2.0
2015-Aug-26 04:33N 38°42' W 009°10'0 0.0
2015-Aug-26 03:30N 38°42' W 009°10'0 0.0
2015-Aug-26 02:33N 38°42' W 009°10'0 0.0
2015-Aug-26 01:05N 38°42' W 009°10'0 0.0
2015-Aug-26 00:33N 38°42' W 009°10'0 0.0
2015-Aug-25 23:32N 38°42' W 009°10'0 0.0
2015-Aug-25 22:33N 38°42' W 009°10'0 0.0
2015-Aug-25 21:30N 38°42' W 009°10'0 0.0
2015-Aug-25 20:31N 38°42' W 009°10'0 0.0
2015-Aug-25 19:33N 38°42' W 009°10'0 0.0
2015-Aug-25 18:32N 38°42' W 009°10'0 0.0
2015-Aug-25 17:33N 38°42' W 009°10'0 0.0
2015-Aug-25 16:33N 38°42' W 009°10'0 0.0
2015-Aug-25 15:32N 38°42' W 009°10'0 0.0
2015-Aug-25 14:27N 38°42' W 009°10'0 0.0
2015-Aug-25 13:32N 38°42' W 009°10'0 0.0
2015-Aug-25 12:33N 38°42' W 009°10'0 0.0
2015-Aug-25 11:28N 38°42' W 009°10'0 0.0
2015-Aug-25 10:33N 38°42' W 009°10'0 0.0
2015-Aug-25 09:33N 38°42' W 009°10'0 0.0
2015-Aug-25 08:31N 38°42' W 009°10'0 0.0
2015-Aug-25 07:33N 38°42' W 009°10'0 0.0
2015-Aug-25 06:31N 38°42' W 009°10'3 2.6
2015-Aug-25 05:26N 38°43' W 009°06'3 3.2
2015-Aug-25 04:33N 38°42' W 009°10'0 0.0
2015-Aug-25 03:33N 38°42' W 009°10'0 0.0
2015-Aug-25 02:33N 38°42' W 009°10'0 0.0
2015-Aug-25 01:29N 38°42' W 009°10'0 0.0
2015-Aug-25 00:33N 38°42' W 009°10'0 0.0
2015-Aug-24 23:33N 38°42' W 009°10'5 4.8
2015-Aug-24 22:33N 38°41' W 009°04'3 3.1
2015-Aug-24 21:33N 38°41' W 009°07'2 2.0
2015-Aug-24 20:33N 38°42' W 009°10'0 0.0
2015-Aug-24 19:33N 38°42' W 009°10'0 0.0
2015-Aug-24 18:32N 38°42' W 009°10'0 0.0
2015-Aug-24 17:33N 38°42' W 009°10'0 0.0
2015-Aug-24 16:33N 38°42' W 009°10'0 0.0
2015-Aug-24 15:32N 38°42' W 009°10'0 0.0
2015-Aug-24 14:22N 38°42' W 009°10'0 0.0
2015-Aug-24 13:33N 38°42' W 009°10'0 0.0
2015-Aug-24 12:29N 38°42' W 009°10'0 0.0
2015-Aug-24 11:16N 38°42' W 009°10'0 0.5
2015-Aug-24 10:29N 38°42' W 009°10'0 0.4
2015-Aug-24 09:30N 38°42' W 009°10'0 0.0
2015-Aug-24 08:33N 38°42' W 009°10'0 0.0
2015-Aug-24 07:33N 38°42' W 009°10'0 0.0
2015-Aug-24 06:33N 38°42' W 009°10'0 0.0
2015-Aug-24 04:30N 38°42' W 009°10'0 0.0
2015-Aug-24 03:34N 38°42' W 009°10'0 0.0
2015-Aug-24 02:33N 38°42' W 009°10'0 0.0
2015-Aug-24 01:33N 38°42' W 009°10'0 0.0
2015-Aug-24 00:33N 38°42' W 009°10'0 0.0
2015-Aug-23 23:30N 38°42' W 009°10'0 0.0
2015-Aug-23 22:33N 38°42' W 009°10'0 0.0
2015-Aug-23 21:34N 38°42' W 009°10'0 0.0
2015-Aug-23 20:30N 38°42' W 009°10'0 0.0
2015-Aug-23 19:24N 38°42' W 009°10'0 0.0
2015-Aug-23 18:30N 38°42' W 009°10'0 0.0
2015-Aug-23 17:34N 38°42' W 009°10'0 0.0
2015-Aug-23 16:34N 38°42' W 009°10'0 0.0
2015-Aug-23 15:32N 38°42' W 009°10'2 1.7
2015-Aug-23 14:33N 38°41' W 009°11'1 1.3
2015-Aug-23 13:33N 38°41' W 009°13'3 2.2
2015-Aug-23 12:22N 38°42' W 009°10'1 1.4
2015-Aug-23 11:33N 38°42' W 009°11'1 1.1
2015-Aug-23 10:31N 38°42' W 009°10'0 0.0
2015-Aug-23 09:33N 38°42' W 009°10'4 3.9
2015-Aug-23 08:34N 38°41' W 009°14'0 0.4
2015-Aug-23 07:34N 38°41' W 009°15'5 5.3
2015-Aug-23 06:33N 38°42' W 009°08'1 1.0
2015-Aug-23 05:34N 38°42' W 009°09'0 0.3
2015-Aug-23 04:22N 38°42' W 009°10'0 0.0
2015-Aug-23 03:33N 38°42' W 009°10'0 0.0
2015-Aug-23 02:33N 38°42' W 009°10'0 0.0
2015-Aug-23 01:27N 38°42' W 009°10'0 0.0
2015-Aug-23 00:32N 38°42' W 009°10'0 0.0
2015-Aug-22 23:13N 38°42' W 009°10'0 0.0
2015-Aug-22 22:33N 38°42' W 009°10'0 0.0
2015-Aug-22 21:32N 38°42' W 009°10'0 0.0
2015-Aug-22 20:34N 38°42' W 009°10'1 1.4
2015-Aug-22 19:33N 38°41' W 009°08'2 1.5
2015-Aug-22 18:30N 38°41' W 009°06'3 3.1
2015-Aug-22 17:34N 38°42' W 009°10'0 0.0
2015-Aug-22 16:33N 38°42' W 009°10'0 0.0
2015-Aug-22 15:29N 38°42' W 009°10'0 0.0
2015-Aug-22 14:33N 38°42' W 009°10'0 0.0
2015-Aug-22 13:33N 38°42' W 009°10'0 0.0
2015-Aug-22 12:33N 38°42' W 009°10'0 0.0
2015-Aug-22 11:33N 38°42' W 009°10'0 0.0
2015-Aug-22 10:32N 38°42' W 009°10'0 0.0
2015-Aug-22 09:29N 38°42' W 009°10'0 0.0
2015-Aug-22 08:32N 38°42' W 009°10'0 0.0
2015-Aug-22 07:31N 38°42' W 009°10'0 0.0
2015-Aug-22 06:32N 38°42' W 009°10'0 0.4
2015-Aug-22 05:34N 38°42' W 009°10'0 0.4
2015-Aug-22 04:31N 38°42' W 009°10'0 0.0
2015-Aug-22 03:32N 38°42' W 009°10'0 0.0
2015-Aug-22 02:33N 38°42' W 009°10'0 0.0
2015-Aug-22 01:31N 38°42' W 009°10'0 0.0
2015-Aug-22 00:32N 38°42' W 009°10'0 0.0
2015-Aug-21 23:33N 38°42' W 009°10'0 0.0
2015-Aug-21 22:32N 38°42' W 009°10'0 0.0
2015-Aug-21 21:34N 38°42' W 009°10'0 0.0
2015-Aug-21 20:30N 38°42' W 009°10'0 0.0
2015-Aug-21 19:32N 38°42' W 009°10'5 4.8
2015-Aug-21 18:33N 38°41' W 009°04'3 3.3
2015-Aug-21 17:34N 38°41' W 009°08'2 1.7
2015-Aug-21 16:33N 38°42' W 009°10'0 0.0
2015-Aug-21 15:28N 38°42' W 009°10'0 0.0
2015-Aug-21 14:27N 38°42' W 009°10'0 0.0
2015-Aug-21 13:33N 38°42' W 009°10'0 0.0
2015-Aug-21 12:33N 38°42' W 009°10'0 0.0
2015-Aug-21 11:33N 38°42' W 009°10'0 0.0
2015-Aug-21 10:33N 38°42' W 009°10'0 0.0
2015-Aug-21 09:30N 38°42' W 009°10'0 0.0
2015-Aug-21 08:33N 38°42' W 009°10'0 0.0
2015-Aug-21 07:33N 38°42' W 009°10'0 0.0
2015-Aug-21 06:33N 38°42' W 009°10'1 1.2
2015-Aug-21 05:33N 38°42' W 009°11'1 1.2
2015-Aug-21 04:33N 38°42' W 009°10'  

Dump ship's entire track history